createdAt,value
2019-01-21T05:03:36.607Z,102075.47
2019-01-21T05:07:04.543Z,102071.51
2019-01-21T05:10:32.416Z,102066.51
2019-01-21T05:14:00.312Z,102073.7
2019-01-21T05:17:28.206Z,102068.28
2019-01-21T05:20:56.080Z,102061
2019-01-21T05:24:23.982Z,102054.97
2019-01-21T05:27:51.865Z,102057.73
2019-01-21T05:31:19.862Z,102060.46
2019-01-21T05:34:47.741Z,102059.32
2019-01-21T05:38:15.636Z,102054.83
2019-01-21T05:41:43.513Z,102054.91
2019-01-21T05:45:11.393Z,102049.7
2019-01-21T05:48:39.341Z,102042.14
2019-01-21T05:52:10.144Z,102041.75
2019-01-21T05:55:38.672Z,102037.96
2019-01-21T05:59:06.551Z,102035.37
2019-01-21T06:02:34.440Z,102041.29
2019-01-21T06:06:03.309Z,102034.04
2019-01-21T06:09:31.196Z,102028
2019-01-21T06:12:59.081Z,102035.6
2019-01-21T06:16:26.965Z,102034.25
2019-01-21T06:19:54.848Z,102046.74
2019-01-21T06:23:22.737Z,102048.53
2019-01-21T06:26:50.616Z,102047.52
2019-01-21T06:30:18.501Z,102048.71
2019-01-21T06:33:46.485Z,102051
2019-01-21T06:37:14.398Z,102052.79
2019-01-21T06:40:42.254Z,102051.51
2019-01-21T06:44:10.200Z,102050.48
2019-01-21T06:47:38.078Z,102048.78
2019-01-21T06:51:05.963Z,102053.48
2019-01-21T06:54:33.881Z,102047.26
2019-01-21T06:58:01.756Z,102046.64
2019-01-21T07:01:29.657Z,102039.67
2019-01-21T07:04:58.525Z,102043.5
2019-01-21T07:08:26.422Z,102036.21
2019-01-21T07:11:54.309Z,102033.84
2019-01-21T07:15:22.175Z,102032.17
2019-01-21T07:18:50.065Z,102029.82
2019-01-21T07:22:17.956Z,102033.59
2019-01-21T07:25:45.824Z,102033.17
2019-01-21T07:29:13.712Z,102038.63
2019-01-21T07:32:41.602Z,102041.59
2019-01-21T07:36:09.491Z,102039.95
2019-01-21T07:39:37.390Z,102041.46
2019-01-21T07:43:05.272Z,102034.26
2019-01-21T07:46:33.141Z,102018.55
2019-01-21T07:50:01.035Z,102015.04
2019-01-21T07:53:28.927Z,102010.2
2019-01-21T07:56:56.792Z,102011.8
2019-01-21T08:00:24.685Z,102014.54
2019-01-21T08:03:52.577Z,102008.6
2019-01-21T08:07:20.480Z,102012.82
2019-01-21T08:10:48.365Z,102008.15
2019-01-21T08:14:16.252Z,102007.6
2019-01-21T08:17:45.118Z,102000.06
2019-01-21T08:21:13.018Z,101998.89
2019-01-21T08:24:40.907Z,101997.26
2019-01-21T08:28:08.781Z,102011
2019-01-21T08:31:36.674Z,101993.04
2019-01-21T08:35:04.575Z,101980.71
2019-01-21T08:38:32.458Z,101984.79
2019-01-21T08:42:00.364Z,101985.11
2019-01-21T08:45:28.246Z,101988
2019-01-21T08:48:56.120Z,101997.93
2019-01-21T08:52:24.013Z,101997.6
2019-01-21T08:55:51.901Z,101997.19
2019-01-21T08:59:19.775Z,101998.98
2019-01-21T09:02:47.667Z,101989.54
2019-01-21T09:06:15.560Z,101976.82
2019-01-21T09:09:43.440Z,101971.23
2019-01-21T09:13:11.322Z,101967.65
2019-01-21T09:16:39.214Z,101966.21
2019-01-21T09:20:10.709Z,101969.32
2019-01-21T09:23:38.932Z,101968.95
2019-01-21T09:27:07.816Z,101963.07
2019-01-21T09:30:36.034Z,101960.21
2019-01-21T09:34:04.895Z,101967.5
2019-01-21T09:37:32.779Z,101972.95
2019-01-21T09:41:00.672Z,101976.51
2019-01-21T09:44:29.542Z,101972.89
2019-01-21T09:47:57.420Z,101962.43
2019-01-21T09:51:25.313Z,101955.37
2019-01-21T09:54:53.180Z,101952.94
2019-01-21T09:58:21.064Z,101952.23
2019-01-21T10:01:49.068Z,101942.31
2019-01-21T10:05:18.919Z,101942.39
2019-01-21T10:08:46.813Z,101933.59
2019-01-21T10:12:14.812Z,101919.43
2019-01-21T10:15:42.688Z,101911.53
2019-01-21T10:19:10.573Z,101918.85
2019-01-21T10:22:38.458Z,101899.82
2019-01-21T10:26:06.331Z,101901.82
2019-01-21T10:29:34.226Z,101893.52
2019-01-21T10:33:02.108Z,101890
2019-01-21T10:36:29.982Z,101884.54
2019-01-21T10:39:57.869Z,101899.88
2019-01-21T10:43:25.759Z,101893.58
2019-01-21T10:46:53.630Z,101918.31
2019-01-21T10:50:21.525Z,101902.35
2019-01-21T10:53:50.400Z,101886.25
2019-01-21T10:57:19.270Z,101881.46
2019-01-21T11:00:47.159Z,101873
2019-01-21T11:04:15.047Z,101861
2019-01-21T11:07:42.921Z,101860.93
2019-01-21T11:11:10.811Z,101848.59
2019-01-21T11:14:38.716Z,101849.66
2019-01-21T11:18:06.656Z,101844.54
2019-01-21T11:21:34.532Z,101841.76
2019-01-21T11:25:02.426Z,101842.22
2019-01-21T11:28:30.289Z,101834.79
2019-01-21T11:31:58.173Z,101843.84
2019-01-21T11:35:26.069Z,101836.48
2019-01-21T11:38:53.942Z,101837.21
2019-01-21T11:42:21.829Z,101834.78
2019-01-21T11:45:49.721Z,101822.2
2019-01-21T11:49:17.593Z,101821
2019-01-21T11:52:45.473Z,101821.58
2019-01-21T11:56:13.369Z,101818.89
2019-01-21T11:59:41.242Z,101809.77
2019-01-21T12:03:09.130Z,101802.05
2019-01-21T12:06:37.027Z,101798.87
2019-01-21T12:10:04.902Z,101793.58
2019-01-21T12:13:32.786Z,101792.43
2019-01-21T12:17:00.676Z,101791
2019-01-21T12:20:28.566Z,101787.12
2019-01-21T12:23:56.440Z,101789.15
2019-01-21T12:27:24.334Z,101779.1
2019-01-21T12:30:52.224Z,101772.71
2019-01-21T12:34:20.097Z,101768.77
2019-01-21T12:37:47.986Z,101762.96
2019-01-21T12:41:21.503Z,101752.67
2019-01-21T12:44:46.718Z,101751.89
2019-01-21T12:48:14.614Z,101749.31
2019-01-21T12:51:42.613Z,101748.57
2019-01-21T12:55:11.472Z,101753.25
2019-01-21T12:58:39.362Z,101747.95
2019-01-21T13:02:07.694Z,101736.57
2019-01-21T13:05:35.575Z,101739.12
2019-01-21T13:09:03.555Z,101740.07
2019-01-21T13:12:32.262Z,101737.4
2019-01-21T13:16:00.761Z,101735.07
2019-01-21T13:19:29.943Z,101732.64
2019-01-21T13:22:57.841Z,101732.56
2019-01-21T13:26:25.748Z,101723.95
2019-01-21T13:29:53.695Z,101727.7
2019-01-21T13:33:22.340Z,101725.28
2019-01-21T13:36:50.220Z,101710.78
2019-01-21T13:40:18.111Z,101706.85
2019-01-21T13:43:46.003Z,101713.61
2019-01-21T13:47:13.871Z,101706.07
2019-01-21T13:50:41.770Z,101707.48
2019-01-21T13:54:09.686Z,101704.71
2019-01-21T13:57:39.565Z,101707.14
2019-01-21T14:01:07.468Z,101703.85
2019-01-21T14:04:36.428Z,101704.26
2019-01-21T14:08:04.325Z,101693.63
2019-01-21T14:11:32.251Z,101682.05
2019-01-21T14:15:01.175Z,101681.31
2019-01-21T14:18:29.077Z,101673.7
2019-01-21T14:21:56.982Z,101674.79
2019-01-21T14:25:24.972Z,101675.59
2019-01-21T14:28:52.806Z,101669.93
2019-01-21T14:32:20.754Z,101673.86
2019-01-21T14:35:48.691Z,101672.75
2019-01-21T14:39:16.590Z,101660.46
2019-01-21T14:42:44.509Z,101667.88
2019-01-21T14:46:12.501Z,101670.89
2019-01-21T14:49:40.386Z,101663.89
2019-01-21T14:53:08.322Z,101662.33
2019-01-21T14:56:36.223Z,101660.98
2019-01-21T15:00:04.184Z,101656.71
2019-01-21T15:03:32.057Z,101650.56
2019-01-21T15:07:00.093Z,101648.07
2019-01-21T15:10:27.991Z,101651.98
2019-01-21T15:13:55.884Z,101644.72
2019-01-21T15:17:24.787Z,101640.2
2019-01-21T15:20:57.710Z,101647.77
2019-01-21T15:24:24.594Z,101630.6
2019-01-21T15:27:52.510Z,101627.37
2019-01-21T15:31:20.473Z,101613.6
2019-01-21T15:34:48.392Z,101616.45
2019-01-21T15:38:17.339Z,101622.28
2019-01-21T15:41:45.152Z,101617.71
2019-01-21T15:45:13.055Z,101621.99
2019-01-21T15:48:40.967Z,101627.2
2019-01-21T15:52:08.830Z,101624.93
2019-01-21T15:55:36.730Z,101617.84
2019-01-21T15:59:04.627Z,101612.57
2019-01-21T16:02:32.516Z,101603
2019-01-21T16:06:00.434Z,101606.29
2019-01-21T16:09:28.433Z,101586.71
2019-01-21T16:12:56.321Z,101593.37
2019-01-21T16:16:24.238Z,101596.53
2019-01-21T16:19:52.168Z,101603.21
2019-01-21T16:23:21.548Z,101606.07
2019-01-21T16:26:49.675Z,101607.5
2019-01-21T16:30:17.816Z,101610.96
2019-01-21T16:33:45.737Z,101599.7
2019-01-21T16:37:14.621Z,101600.17
2019-01-21T16:40:42.524Z,101599.53
2019-01-21T16:44:12.426Z,101595.67
2019-01-21T16:47:40.326Z,101584.06
2019-01-21T16:51:08.230Z,101582.62
2019-01-21T16:54:37.119Z,101588.21
2019-01-21T16:58:04.999Z,101590.28
2019-01-21T17:01:32.932Z,101596
2019-01-21T17:05:00.929Z,101598.21
2019-01-21T17:08:28.929Z,101588.03
2019-01-21T17:11:57.842Z,101585.98
2019-01-21T17:15:25.795Z,101591.07
2019-01-21T17:18:53.808Z,101585.67
2019-01-21T17:22:22.092Z,101587.57
2019-01-21T17:25:51.128Z,101578.2
2019-01-21T17:29:19.095Z,101571.85
2019-01-21T17:32:47.146Z,101574.54
2019-01-21T17:36:15.407Z,101574.4
2019-01-21T17:39:43.520Z,101567.09
2019-01-21T17:43:11.616Z,101564.08
2019-01-21T17:46:42.072Z,101564.87
2019-01-21T17:50:11.327Z,101558.99
2019-01-21T17:53:40.767Z,101552.48
2019-01-21T17:57:13.046Z,101552.78
2019-01-21T18:00:41.336Z,101550.22
2019-01-21T18:04:09.557Z,101551.07
2019-01-21T18:07:38.646Z,101554.9
2019-01-21T18:11:06.576Z,101548.98
2019-01-21T18:14:35.561Z,101556.97
2019-01-21T18:18:03.513Z,101545.68
2019-01-21T18:21:31.461Z,101541.06
2019-01-21T18:25:02.541Z,101537.74
2019-01-21T18:28:30.576Z,101525
2019-01-21T18:31:59.560Z,101527.89
2019-01-21T18:35:27.592Z,101515.78
2019-01-21T18:38:56.780Z,101512.74
2019-01-21T18:42:24.772Z,101514.21
2019-01-21T18:45:52.796Z,101507.04
2019-01-21T18:49:23.999Z,101514.36
2019-01-21T18:52:52.335Z,101510.39
2019-01-21T18:56:20.706Z,101509.93
2019-01-21T18:59:49.881Z,101506.28
2019-01-21T19:03:17.997Z,101505.17
2019-01-21T19:06:46.643Z,101506.14
2019-01-21T19:10:14.686Z,101515.67
2019-01-21T19:13:43.645Z,101506.6
2019-01-21T19:17:11.853Z,101498.96
2019-01-21T19:20:40.006Z,101497.86
2019-01-21T19:24:08.186Z,101502.95
2019-01-21T19:27:36.250Z,101513.31
2019-01-21T19:31:05.976Z,101499.64
2019-01-21T19:34:34.211Z,101496.93
2019-01-21T19:38:02.635Z,101502.04
2019-01-21T19:41:32.925Z,101502.38
2019-01-21T19:45:01.169Z,101504.46
2019-01-21T19:48:31.630Z,101511.62
2019-01-21T19:52:03.443Z,101501.43
2019-01-21T19:55:32.689Z,101505.28
2019-01-21T19:59:01.042Z,101498.15
2019-01-21T20:02:30.356Z,101508.06
2019-01-21T20:05:58.871Z,101493.41
2019-01-21T20:09:27.180Z,101497.71
2019-01-21T20:12:55.560Z,101492.93
2019-01-21T20:16:24.396Z,101496.01
2019-01-21T20:19:52.223Z,101496.17
2019-01-21T20:23:20.151Z,101502.89
2019-01-21T20:26:48.105Z,101500.53
2019-01-21T20:30:16.045Z,101492.41
2019-01-21T20:33:43.948Z,101493.54
2019-01-21T20:37:14.881Z,101491.17
2019-01-21T20:40:42.786Z,101499.48
2019-01-21T20:44:10.698Z,101489.29
2019-01-21T20:47:38.644Z,101477.99
2019-01-21T20:51:06.534Z,101485.49
2019-01-21T20:54:34.455Z,101489.18
2019-01-21T20:58:02.396Z,101486.78
2019-01-21T21:01:30.316Z,101494.12
2019-01-21T21:04:58.213Z,101488.87
2019-01-21T21:08:26.200Z,101481.73
2019-01-21T21:11:54.106Z,101486.2
2019-01-21T21:15:22.053Z,101478.1
2019-01-21T21:18:50.009Z,101478.92
2019-01-21T21:22:21.217Z,101479.4
2019-01-21T21:25:49.102Z,101480.07
2019-01-21T21:29:17.005Z,101488.53
2019-01-21T21:32:45.919Z,101482.46
2019-01-21T21:36:14.380Z,101477.84
2019-01-21T21:39:42.993Z,101486
2019-01-21T21:43:10.917Z,101485.36
2019-01-21T21:46:38.807Z,101489.2
2019-01-21T21:50:06.704Z,101489.82
2019-01-21T21:53:34.609Z,101484.6
2019-01-21T21:57:02.502Z,101482.69
2019-01-21T22:00:30.425Z,101481.28
2019-01-21T22:03:58.327Z,101478.87
2019-01-21T22:07:26.208Z,101480.96
2019-01-21T22:10:54.106Z,101475.54
2019-01-21T22:14:22.012Z,101482.07
2019-01-21T22:17:49.880Z,101475.7
2019-01-21T22:21:18.785Z,101469.97
2019-01-21T22:24:47.696Z,101470.95
2019-01-21T22:28:15.619Z,101469.01
2019-01-21T22:31:43.522Z,101468.04
2019-01-21T22:35:11.423Z,101469.66
2019-01-21T22:38:39.321Z,101465.97
2019-01-21T22:42:07.191Z,101460.25
2019-01-21T22:45:35.116Z,101471.73
2019-01-21T22:49:03.023Z,101467.45
2019-01-21T22:52:30.890Z,101471.29
2019-01-21T22:55:59.789Z,101471.28
2019-01-21T22:59:27.691Z,101464.26
